Key West, FL

2:27 AM EDT on August 25, 2016 (GMT -0400)
Key West International | | Change Station

Elev 0 ft 24.56 °N, 81.75 °W | Updated 34 minutes ago

Clear
Clear
79 °F
Feels Like 79 °F
N
8
Wind Variable Wind from NE

Today
High -- | Low -- °F
--% Chance of Precip.
Yesterday
High -- | Low -- °F
Precip. -- in
Pressure 29.98 in
Visibility 10.0 miles
Clouds Clear
Dew Point 79 °F
Humidity 100%
Rainfall 0.00 in
Snow Depth Not available.
7:05 AM 7:51 PM
Waning Gibbous, 49% visible
METAR KEYW 250553Z AUTO 04007KT 10SM CLR 26/26 A2998 RMK AO2 SLP152 T02610261 10278 20261 58007
Pressure 29.98 in
Visibility 10.0 miles
Clouds Clear
Dew Point 79 °F
Humidity 100%
Rainfall 0.00 in
Snow Depth Not available.
7:05 AM 7:51 PM
Waning Gibbous, 49% visible
METAR KEYW 250553Z AUTO 04007KT 10SM CLR 26/26 A2998 RMK AO2 SLP152 T02610261 10278 20261 58007

10-Day Weather Forecast

Almanac

Astronomy

Aug. 25, 2016 Rise Set
Actual Time
Civil Twilight
Nautical Twilight
Astronomical Twilight
Moon
Length of Visible Light
Length of Day
Tomorrow will be .
, % of the Moon is Illuminated

Today's Extremes

State Highs State Lows

Community

WunderPhotos

Upload Photos

1,934,803 photos uploaded!

WunderBlog® & News

Nearby

Air Quality

  Air Quality AQ Index Pollutant
Not available.

Snow Depth

Station Depth Elevation

Earthquake Activity

City Distance Mag. Time & Date
Minimum magnitude displayed is 2.5.

Coastal Water Temperatures

Place Temperature

Stations

Nearby Weather Stations

Station Location Temp. Windchill Dew Point Humidity Wind Precip. Elev Updated Type
                   

Watches & Warnings

There are currently no watches in effect.